Accueil
METAR-TAF:

METAR-TAF

Aéroports :

Sion, Suisse

Aéroport de Sion

latitude: 46-13N, longitude: 007-20E, altitude: 482 m

Observation

Le bulletin a été fait il y a 30 minutes, à 09:50 UTC
Vent 14 kt de ouest/sud-ouest
Température 8°C
Humidité 61%
Pression 1013 hPa
Visibilité 10 km ou plus
Quelques nuages à une hauteur de 2500 ft
Nuages fragmentés à une hauteur de 7000 ft

METAR: LSGS 280950Z 24014KT 9999 FEW025 BKN070 08/01 Q1013

Heure: 12:20 (10:20 UTC)

Prévision

Le bulletin a été fait il y a 1 heure et 55 minutes, à 08:25 UTC
Prévision valable du 28 à 09 UTC au 28 à 18 UTC
Vent 15 kt de ouest/sud-ouest
Visibilité 10 km ou plus
Quelques nuages à une hauteur de 1500 ft
Ciel couvert à une hauteur de 6500 ft
Temporairement
du 28 à 12 UTC au 28 à 16 UTC
Visibilité: 4500 m
averses de pluie

TAF: LSGS 280825Z 2809/2818 25015KT 9999 FEW015 OVC065 TEMPO 2812/2816 4500 SHRA

Observations et prévisions météorologiques de plus de 4000 aéroports (messages METAR et TAF).

Les stations disponibles sont représentées par des disques jaunes et rouges sur la carte.

Passer la souris dessus pour voir le nom de la station.

Cliquer dessus pour voir les observations et prévisions météorologiques.

Pour changer de carte: cliquez sur les boutons verts avec une croix noire pour zoomer, sur le bouton vert avec un tiret pour effectuer un zoom arrière, ou sur les flèches vertes pour les cartes adjacentes.


METAR-TAF: